Latest Weather Observations for Orange Airport

IDN60801

Issued at 5:05 pm EDT Friday 31 October 2014 (issued every 30 minutes, with the page automatically refreshed every 10 minutes)

About weather observations | Map of weather stations | Latest weather observations for NSW | Other Formats
Station Details ID: 063303 Name: ORANGE AIRPORT AWS Lat: -33.38 Lon: 149.13 Height: 947.4 m
Data from the previous 72 hours. | See also: Recent months at Orange Airport
Date/Time
EDT
Temp
°C
App
Temp
°C
Dew
Point
Rel
Hum
%
Delta-T
°C
Wind Press
QNH
hPa
Press
MSL
hPa
Rain
since 9 am
mm
Dir
 
Spd
km/h
Gust
km/h
Spd
kts
Gust
kts
31/05:00pm 26.2 19.6 2.2 21 12.2 N 26 33 14 18 1012.1 1010.4 0.0
31/04:51pm 26.8 19.8 2.0 20 12.6 NNW 28 46 15 25 1012.1 1010.4 0.0
31/04:30pm 26.7 19.9 3.2 22 12.2 NNW 28 35 15 19 1012.2 1010.5 0.0
31/04:00pm 26.2 20.3 4.1 24 11.6 NNW 24 33 13 18 1012.5 1010.7 0.0
31/03:30pm 26.1 20.7 2.7 22 11.9 NW 20 33 11 18 1012.8 1011.1 0.0
31/03:00pm 26.6 21.8 4.4 24 11.7 N 19 28 10 15 1013.3 1011.6 0.0
31/02:30pm 25.2 19.5 2.6 23 11.5 NNW 22 32 12 17 1013.9 1012.2 0.0
31/02:00pm 26.4 20.0 3.0 22 12.0 NNW 26 41 14 22 1014.5 1012.9 0.0
31/01:30pm 25.9 19.9 1.2 20 12.3 NNW 22 35 12 19 1015.2 1013.5 0.0
31/01:00pm 26.5 21.2 4.9 25 11.5 NNW 22 35 12 19 1015.6 1014.0 0.0
31/12:30pm 26.0 19.5 4.5 25 11.3 NNW 28 39 15 21 1016.1 1014.4 0.0
31/12:00pm 25.6 19.5 2.9 23 11.6 NNW 24 37 13 20 1016.5 1014.9 0.0
31/11:30am 25.5 20.7 5.7 28 10.6 N 20 30 11 16 1016.7 1015.1 0.0
31/11:00am 24.9 19.3 5.2 28 10.4 NNW 24 35 13 19 1017.2 1015.6 0.0
31/10:30am 24.5 21.1 7.6 34 9.3 N 15 22 8 12 1017.4 1015.8 0.0
31/10:00am 23.5 19.7 7.6 36 8.7 N 17 20 9 11 1017.6 1016.0 0.0
31/09:30am 22.3 19.7 7.7 39 8.0 N 11 15 6 8 1017.7 1016.1 0.0
31/09:00am 21.1 18.5 7.7 42 7.3 N 11 15 6 8 1017.7 1016.1 0.0
31/08:30am 19.8 17.1 5.5 39 7.4 NNW 9 13 5 7 1017.8 1016.2 0.0
31/08:00am 18.3 15.9 7.1 48 5.9 N 9 11 5 6 1017.5 1015.9 0.0
31/07:30am 15.4 13.7 8.4 63 3.7 S 7 9 4 5 1017.3 1015.7 0.0
31/07:00am 11.9 9.6 7.4 74 2.3 S 9 11 5 6 1017.0 1015.3 0.0
31/06:30am 9.7 7.9 3.2 64 3.0 S 2 9 1 5 1016.6 1015.0 0.0
31/06:00am 9.4 7.8 2.3 61 3.2 S 0 0 0 0 1016.1 1014.4 0.0
31/05:30am 8.3 6.3 2.1 65 2.7 S 2 7 1 4 1016.0 1014.3 0.0
31/05:00am 9.1 7.5 2.7 64 2.9 CALM 0 0 0 0 1016.0 1014.3 0.0
31/04:30am 9.9 8.3 2.3 59 3.4 CALM 0 0 0 0 1016.2 1014.5 0.0
31/04:00am 9.7 8.3 3.7 66 2.8 CALM 0 0 0 0 1016.3 1014.7 0.0
31/03:30am 8.1 6.6 3.0 70 2.3 CALM 0 0 0 0 1016.4 1014.8 0.0
31/03:00am 9.0 7.6 3.6 69 2.5 CALM 0 0 0 0 1016.5 1014.9 0.0
31/02:30am 8.3 6.8 3.2 70 2.3 CALM 0 0 0 0 1016.8 1015.2 0.0
31/02:00am 9.2 7.7 3.2 66 2.7 CALM 0 0 0 0 1017.1 1015.4 0.0
31/01:30am 9.0 7.6 3.4 68 2.6 CALM 0 0 0 0 1017.3 1015.7 0.0
31/01:00am 8.3 7.0 4.1 75 1.9 CALM 0 0 0 0 1017.5 1015.9 0.0
31/12:30am 9.2 7.8 3.4 67 2.7 CALM 0 0 0 0 1017.6 1016.0 0.0
31/12:00am 9.4 8.2 4.6 72 2.3 SSE 0 0 0 0 1017.6 1016.0 0.0
 
Date/Time
EDT
Temp
°C
App
Temp
°C
Dew
Point
Rel
Hum
%
Delta-T
°C
Wind Press
QNH
hPa
Press
MSL
hPa
Rain
since 9 am
mm
Dir
 
Spd
km/h
Gust
km/h
Spd
kts
Gust
kts
30/11:30pm 9.7 7.4 4.9 72 2.3 S 6 9 3 5 1017.8 1016.2 0.0
30/11:00pm 11.3 10.2 5.0 65 3.0 CALM 0 0 0 0 1017.8 1016.2 0.0
30/10:30pm 9.8 7.3 4.0 67 2.7 N 6 7 3 4 1017.9 1016.3 0.0
30/10:00pm 12.3 9.0 4.3 58 3.8 WSW 11 11 6 6 1017.8 1016.2 0.0
30/09:30pm 12.5 10.0 4.7 59 3.8 W 7 9 4 5 1017.8 1016.2 0.0
30/09:00pm 14.0 11.6 4.3 52 4.7 W 6 7 3 4 1017.6 1016.0 0.0
30/08:30pm 16.0 14.1 4.7 47 5.6 W 4 6 2 3 1017.4 1015.8 0.0
30/08:00pm 16.7 15.5 4.4 44 6.1 CALM 0 0 0 0 1017.2 1015.6 0.0
30/07:30pm 18.4 16.0 4.2 39 7.1 W 6 7 3 4 1017.1 1015.4 0.0
30/07:00pm 21.2 18.4 3.4 31 8.9 W 7 11 4 6 1016.8 1015.2 0.0
30/06:30pm 22.2 17.9 3.3 29 9.5 WSW 15 24 8 13 1016.7 1015.1 0.0
30/06:00pm 22.7 17.6 2.8 27 10.0 W 19 24 10 13 1016.5 1014.9 0.0
30/05:30pm 23.4 18.5 3.9 28 10.0 WSW 19 26 10 14 1016.5 1014.9 0.0
30/05:00pm 23.5 19.1 4.9 30 9.7 W 17 24 9 13 1016.5 1014.9 0.0
30/04:30pm 23.8 19.6 3.7 27 10.3 W 15 24 8 13 1016.5 1014.9 0.0
30/04:00pm 23.5 18.3 5.4 31 9.5 W 22 30 12 16 1016.5 1014.9 0.0
30/03:30pm 23.5 17.0 2.9 26 10.4 WSW 26 33 14 18 1016.8 1015.2 0.0
30/03:00pm 23.6 18.2 4.5 29 9.9 WSW 22 32 12 17 1017.1 1015.4 0.0
30/02:30pm 23.3 18.0 4.8 30 9.6 W 22 39 12 21 1017.4 1015.8 0.0
30/02:00pm 22.9 16.8 4.9 31 9.4 W 26 35 14 19 1017.7 1016.1 0.0
30/01:30pm 22.2 17.6 3.8 30 9.4 W 17 30 9 16 1017.9 1016.3 0.0
30/01:00pm 22.1 17.4 3.3 29 9.4 SW 17 22 9 12 1018.1 1016.4 0.0
30/12:30pm 21.5 17.1 5.0 34 8.5 WSW 17 24 9 13 1018.5 1016.9 0.0
30/12:00pm 20.3 17.2 7.3 43 7.0 WSW 13 20 7 11 1018.8 1017.2 0.0
30/11:30am 19.8 15.5 5.1 38 7.5 W 17 24 9 13 1019.0 1017.5 0.0
30/11:00am 20.0 15.4 6.7 42 7.0 WSW 20 30 11 16 1019.3 1017.7 0.0
30/10:30am 19.5 14.6 6.9 44 6.7 WSW 22 37 12 20 1019.4 1017.8 0.0
30/10:00am 18.4 13.6 5.6 43 6.6 WSW 20 28 11 15 1019.4 1017.8 0.0
30/09:30am 18.5 14.1 6.4 45 6.3 WSW 19 22 10 12 1019.1 1017.6 0.0
30/09:00am 18.0 14.5 5.6 44 6.3 WSW 13 20 7 11 1019.0 1017.5 0.0
30/08:30am 16.7 14.5 6.2 50 5.4 WSW 7 11 4 6 1018.9 1017.3 0.0
30/08:00am 15.5 14.6 6.0 53 4.8 CALM 0 0 0 0 1018.8 1017.2 0.0
30/07:30am 13.5 11.8 7.5 67 3.1 WSW 6 6 3 3 1018.6 1017.0 0.0
30/07:00am 11.1 8.4 5.6 69 2.7 WSW 9 11 5 6 1018.6 1017.0 0.0
30/06:30am 8.5 5.0 3.6 71 2.2 WSW 11 13 6 7 1018.3 1016.7 0.0
30/06:00am 7.9 4.3 3.2 72 2.1 WSW 11 13 6 7 1018.1 1016.4 0.0
30/05:30am 8.6 4.5 2.4 65 2.8 SW 13 15 7 8 1017.8 1016.2 0.0
30/05:00am 8.1 4.5 3.2 71 2.2 SW 11 13 6 7 1017.6 1016.0 0.0
30/04:30am 6.0 2.3 2.3 77 1.6 WSW 11 11 6 6 1017.5 1015.9 0.0
30/04:00am 6.2 3.0 2.8 79 1.5 WSW 9 9 5 5 1017.4 1015.8 0.0
30/03:30am 7.0 3.5 3.3 77 1.7 WSW 11 13 6 7 1017.5 1015.9 0.0
30/03:00am 6.9 3.6 2.4 73 2.0 WSW 9 9 5 5 1017.7 1016.1 0.0
30/02:30am 9.0 5.4 3.2 67 2.6 WSW 11 11 6 6 1017.9 1016.3 0.0
30/02:00am 10.5 7.1 3.8 63 3.1 WSW 11 11 6 6 1018.1 1016.4 0.0
30/01:30am 10.9 7.5 3.9 62 3.3 WSW 11 13 6 7 1018.4 1016.8 0.0
30/01:00am 11.3 7.9 4.1 61 3.4 WSW 11 13 6 7 1018.5 1016.9 0.0
30/12:30am 10.9 7.1 4.1 63 3.2 WSW 13 13 7 7 1018.8 1017.2 0.0
30/12:00am 10.4 6.6 3.9 64 3.0 WSW 13 15 7 8 1018.9 1017.3 0.0
 
Date/Time
EDT
Temp
°C
App
Temp
°C
Dew
Point
Rel
Hum
%
Delta-T
°C
Wind Press
QNH
hPa
Press
MSL
hPa
Rain
since 9 am
mm
Dir
 
Spd
km/h
Gust
km/h
Spd
kts
Gust
kts
29/11:30pm 11.5 8.2 4.5 62 3.3 WSW 11 13 6 7 1018.9 1017.3 0.0
29/11:00pm 10.8 7.2 4.9 67 2.8 W 13 15 7 8 1019.0 1017.5 0.0
29/10:49pm 10.2 6.5 4.4 67 2.7 W 13 15 7 8 1019.0 1017.5 0.0
29/10:34pm 10.6 6.9 4.7 67 2.8 W 13 13 7 7 1019.0 1017.5 0.0
29/10:30pm 10.5 6.8 4.6 67 2.8 W 13 13 7 7 1019.0 1017.5 0.0
29/10:00pm 10.6 7.7 4.9 68 2.7 W 9 11 5 6 1019.0 1017.5 0.0
29/09:30pm 11.3 8.2 5.4 67 2.9 W 11 11 6 6 1019.0 1017.5 0.0
29/09:00pm 11.8 8.7 5.4 65 3.1 W 11 11 6 6 1018.9 1017.3 0.0
29/08:42pm 12.0 9.3 5.4 64 3.2 W 9 11 5 6 1018.7 1017.1 0.0
29/08:30pm 13.2 10.9 5.6 60 3.8 WSW 7 9 4 5 1018.6 1017.0 0.0
29/08:22pm 12.7 9.8 4.9 59 3.8 WSW 9 9 5 5 1018.6 1017.0 0.0
29/08:00pm 14.6 12.2 5.4 54 4.6 WSW 7 7 4 4 1018.6 1017.0 0.0
29/07:30pm 16.4 14.2 6.0 50 5.3 WSW 7 9 4 5 1018.4 1016.8 0.0
29/07:00pm 18.7 16.1 6.2 44 6.5 WSW 9 11 5 6 1018.2 1016.6 0.0
29/06:30pm 19.7 15.6 4.6 37 7.7 SW 15 17 8 9 1018.1 1016.4 0.0
29/06:00pm 20.2 15.9 5.1 37 7.8 SW 17 24 9 13 1017.8 1016.2 0.0
29/05:30pm 20.3 15.6 5.1 37 7.8 SW 19 24 10 13 1017.8 1016.2 0.0
29/05:00pm 20.6 16.6 6.5 40 7.5 SW 17 20 9 11 1017.7 1016.1 0.0
29/04:30pm 20.4 16.3 6.0 39 7.5 SW 17 24 9 13 1017.9 1016.3 0.0
29/04:00pm 20.2 16.9 6.2 40 7.3 SW 13 28 7 15 1018.2 1016.6 0.0
29/03:30pm 20.3 17.1 7.0 42 7.1 WSW 13 26 7 14 1018.3 1016.7 0.0
29/03:00pm 20.1 16.0 6.1 40 7.3 SW 17 24 9 13 1018.5 1016.9 0.0
29/02:30pm 19.5 16.0 5.6 40 7.2 WSW 13 24 7 13 1018.7 1017.1 0.0
29/02:00pm 18.8 16.3 6.6 45 6.4 WSW 9 13 5 7 1018.9 1017.3 0.0
29/01:30pm 18.5 14.2 7.0 47 6.1 SSW 19 28 10 15 1019.1 1017.6 0.0
29/01:00pm 18.4 14.9 7.2 48 5.9 SSW 15 22 8 12 1019.3 1017.7 0.0
29/12:30pm 17.8 14.4 7.5 51 5.5 SSW 15 26 8 14 1019.6 1018.0 0.0
29/12:00pm 17.0 12.6 6.5 50 5.4 SSW 19 24 10 13 1019.9 1018.3 0.0
29/11:30am 16.2 11.2 6.3 52 5.1 S 22 30 12 16 1020.0 1018.5 0.0
29/11:00am 16.4 11.6 7.3 55 4.8 SW 22 32 12 17 1020.2 1018.7 0.0
29/10:30am 15.8 11.3 7.0 56 4.6 SW 20 28 11 15 1020.2 1018.7 0.0
29/10:00am 14.8 9.5 6.6 58 4.2 SW 24 30 13 16 1020.1 1018.6 0.0
29/09:30am 14.3 8.5 6.4 59 4.0 SW 26 32 14 17 1020.0 1018.5 0.0
29/09:00am 13.6 8.1 6.0 60 3.8 SSW 24 32 13 17 1019.8 1018.2 0.0
29/08:30am 12.6 7.4 5.5 62 3.5 SSW 22 30 12 16 1019.5 1017.9 0.0
29/08:00am 11.8 7.3 5.9 67 2.9 SSW 19 28 10 15 1019.3 1017.7 0.0
29/07:30am 10.7 7.0 6.5 75 2.1 SSW 15 20 8 11 1019.0 1017.5 0.0
29/07:00am 9.4 5.7 6.1 80 1.6 SSW 15 17 8 9 1018.6 1017.0 0.0
29/06:30am 7.8 4.2 5.1 83 1.3 SW 13 17 7 9 1018.6 1017.0 0.0
29/06:00am 7.3 4.1 5.1 86 1.0 SW 11 15 6 8 1018.3 1016.7 0.0
29/05:30am 6.3 3.3 4.1 86 1.0 WSW 9 13 5 7 1018.1 1016.4 0.0
29/05:00am 6.3 3.3 4.1 86 1.0 WSW 9 11 5 6 1017.9 1016.3 0.0
29/04:30am 5.2 2.2 4.0 92 0.5 WSW 9 9 5 5 1017.6 1016.0 0.0
29/04:00am 6.1 3.7 4.4 89 0.8 WSW 6 7 3 4 1017.5 1015.9 0.0
29/03:30am 4.9 2.3 3.1 88 0.8 WSW 6 7 3 4 1017.4 1015.8 0.0
29/03:00am 5.6 2.9 3.6 87 0.9 WSW 7 9 4 5 1017.3 1015.7 0.0
29/02:30am 6.5 3.9 4.0 84 1.1 WSW 7 7 4 4 1017.2 1015.6 0.0
29/02:00am 6.2 3.0 3.0 80 1.4 WSW 9 9 5 5 1017.4 1015.8 0.0
29/01:30am 8.3 5.8 3.8 73 2.1 WSW 6 9 3 5 1017.5 1015.9 0.0
29/01:00am 9.0 5.6 4.0 71 2.3 WSW 11 13 6 7 1017.8 1016.2 0.0
29/12:30am 9.9 5.8 4.1 67 2.7 SW 15 20 8 11 1017.9 1016.3 0.0
29/12:00am 10.5 6.0 4.0 64 3.0 WSW 17 22 9 12 1017.7 1016.1 0.0
 
Date/Time
EDT
Temp
°C
App
Temp
°C
Dew
Point
Rel
Hum
%
Delta-T
°C
Wind Press
QNH
hPa
Press
MSL
hPa
Rain
since 9 am
mm
Dir
 
Spd
km/h
Gust
km/h
Spd
kts
Gust
kts
28/11:30pm 10.8 5.7 4.0 63 3.2 WSW 20 26 11 14 1017.6 1016.0 0.0
28/11:00pm 9.8 6.0 3.8 66 2.8 WSW 13 20 7 11 1017.6 1016.0 0.0
28/10:30pm 9.7 5.8 3.4 65 2.9 WSW 13 15 7 8 1017.5 1015.9 0.0
28/10:00pm 9.7 5.8 3.2 64 3.0 W 13 17 7 9 1017.5 1015.9 0.0
28/09:30pm 9.8 5.8 2.9 62 3.1 W 13 15 7 8 1017.5 1015.9 0.0
28/09:00pm 10.4 6.4 2.7 59 3.5 W 13 19 7 10 1017.3 1015.7 0.0
28/08:30pm 10.2 6.2 2.6 59 3.4 W 13 13 7 7 1017.0 1015.3 0.0
28/08:00pm 11.3 7.2 2.3 54 4.1 W 13 15 7 8 1016.6 1015.0 0.0
28/07:30pm 12.8 7.9 2.1 48 4.9 WSW 17 22 9 12 1016.3 1014.7 0.0
28/07:00pm 14.4 8.9 2.0 43 5.7 WSW 20 28 11 15 1016.0 1014.3 0.0
28/06:30pm 15.3 8.4 2.5 42 6.0 WSW 28 39 15 21 1015.6 1014.0 0.0
28/06:00pm 15.9 9.0 2.3 40 6.4 WSW 28 35 15 19 1015.5 1013.9 0.0
28/05:30pm 16.3 8.9 2.0 38 6.7 WSW 30 43 16 23 1015.4 1013.8 0.0

Other Formats:

Comma delimited format used in spreadsheet applications
http://www.bom.gov.au/fwo/IDN60801/IDN60801.95726.axf

JavaScript Object Notation format (JSON) in row-major order
http://www.bom.gov.au/fwo/IDN60801/IDN60801.95726.json